sensor_id;sensor_type;location;lat;lon;timestamp;P1;durP1;ratioP1;P2;durP2;ratioP2
15679;SDS011;15488;48.114;11.532;2022-09-17T00:00:38;3.97;;;2.90;;
15679;SDS011;15488;48.114;11.532;2022-09-17T00:03:06;3.23;;;2.73;;
15679;SDS011;15488;48.114;11.532;2022-09-17T00:05:36;5.67;;;3.20;;
15679;SDS011;15488;48.114;11.532;2022-09-17T00:08:04;4.43;;;3.10;;
15679;SDS011;15488;48.114;11.532;2022-09-17T00:10:35;3.80;;;3.23;;
15679;SDS011;15488;48.114;11.532;2022-09-17T00:13:04;3.80;;;3.00;;
15679;SDS011;15488;48.114;11.532;2022-09-17T00:15:32;3.70;;;3.40;;
15679;SDS011;15488;48.114;11.532;2022-09-17T00:18:04;3.10;;;2.80;;
15679;SDS011;15488;48.114;11.532;2022-09-17T00:20:36;4.87;;;3.43;;
15679;SDS011;15488;48.114;11.532;2022-09-17T00:23:06;4.20;;;2.70;;
15679;SDS011;15488;48.114;11.532;2022-09-17T00:25:36;4.00;;;2.60;;
15679;SDS011;15488;48.114;11.532;2022-09-17T00:28:04;2.80;;;2.50;;
15679;SDS011;15488;48.114;11.532;2022-09-17T00:30:32;2.67;;;2.40;;
15679;SDS011;15488;48.114;11.532;2022-09-17T00:32:59;2.20;;;2.00;;
15679;SDS011;15488;48.114;11.532;2022-09-17T00:35:27;1.90;;;1.70;;
15679;SDS011;15488;48.114;11.532;2022-09-17T00:37:56;2.60;;;2.00;;
15679;SDS011;15488;48.114;11.532;2022-09-17T00:40:23;2.10;;;1.90;;
15679;SDS011;15488;48.114;11.532;2022-09-17T00:42:51;3.10;;;2.00;;
15679;SDS011;15488;48.114;11.532;2022-09-17T00:45:18;2.27;;;1.77;;
15679;SDS011;15488;48.114;11.532;2022-09-17T00:47:48;2.23;;;1.70;;
15679;SDS011;15488;48.114;11.532;2022-09-17T00:50:22;2.63;;;2.00;;
15679;SDS011;15488;48.114;11.532;2022-09-17T00:52:54;2.00;;;1.77;;
15679;SDS011;15488;48.114;11.532;2022-09-17T00:55:26;2.10;;;1.90;;
15679;SDS011;15488;48.114;11.532;2022-09-17T00:57:58;2.07;;;1.80;;
15679;SDS011;15488;48.114;11.532;2022-09-17T01:00:28;2.10;;;1.30;;
15679;SDS011;15488;48.114;11.532;2022-09-17T01:02:56;3.33;;;2.00;;
15679;SDS011;15488;48.114;11.532;2022-09-17T01:05:26;2.10;;;1.50;;
15679;SDS011;15488;48.114;11.532;2022-09-17T01:08:03;2.10;;;1.80;;
15679;SDS011;15488;48.114;11.532;2022-09-17T01:13:42;1.63;;;1.40;;
15679;SDS011;15488;48.114;11.532;2022-09-17T01:16:25;2.30;;;1.60;;
15679;SDS011;15488;48.114;11.532;2022-09-17T01:19:18;2.77;;;1.80;;
15679;SDS011;15488;48.114;11.532;2022-09-17T01:22:00;1.60;;;1.50;;
15679;SDS011;15488;48.114;11.532;2022-09-17T01:27:40;2.90;;;1.70;;
15679;SDS011;15488;48.114;11.532;2022-09-17T01:33:40;2.33;;;1.30;;
15679;SDS011;15488;48.114;11.532;2022-09-17T01:36:19;1.77;;;1.40;;
15679;SDS011;15488;48.114;11.532;2022-09-17T01:38:59;1.73;;;1.53;;
15679;SDS011;15488;48.114;11.532;2022-09-17T01:41:36;1.60;;;1.37;;
15679;SDS011;15488;48.114;11.532;2022-09-17T01:44:09;2.47;;;1.47;;
15679;SDS011;15488;48.114;11.532;2022-09-17T01:46:42;1.87;;;1.47;;
15679;SDS011;15488;48.114;11.532;2022-09-17T01:49:13;2.73;;;1.50;;
15679;SDS011;15488;48.114;11.532;2022-09-17T01:51:43;1.80;;;1.50;;
15679;SDS011;15488;48.114;11.532;2022-09-17T01:54:14;1.50;;;1.40;;
15679;SDS011;15488;48.114;11.532;2022-09-17T01:56:46;2.20;;;1.37;;
15679;SDS011;15488;48.114;11.532;2022-09-17T01:59:21;1.50;;;1.40;;
15679;SDS011;15488;48.114;11.532;2022-09-17T02:01:52;1.70;;;1.60;;
15679;SDS011;15488;48.114;11.532;2022-09-17T02:04:27;1.70;;;1.47;;
15679;SDS011;15488;48.114;11.532;2022-09-17T02:06:57;1.87;;;1.47;;
15679;SDS011;15488;48.114;11.532;2022-09-17T02:09:30;1.50;;;1.40;;
15679;SDS011;15488;48.114;11.532;2022-09-17T02:12:02;2.97;;;1.50;;
15679;SDS011;15488;48.114;11.532;2022-09-17T02:14:37;2.30;;;1.50;;
15679;SDS011;15488;48.114;11.532;2022-09-17T02:17:09;1.87;;;1.50;;
15679;SDS011;15488;48.114;11.532;2022-09-17T02:19:42;1.77;;;1.30;;
15679;SDS011;15488;48.114;11.532;2022-09-17T02:22:13;1.60;;;1.50;;
15679;SDS011;15488;48.114;11.532;2022-09-17T02:24:48;1.60;;;1.10;;
15679;SDS011;15488;48.114;11.532;2022-09-17T02:27:23;1.60;;;1.30;;
15679;SDS011;15488;48.114;11.532;2022-09-17T02:29:59;1.47;;;1.37;;
15679;SDS011;15488;48.114;11.532;2022-09-17T02:32:26;2.50;;;1.10;;
15679;SDS011;15488;48.114;11.532;2022-09-17T02:34:55;1.20;;;1.10;;
15679;SDS011;15488;48.114;11.532;2022-09-17T02:37:23;2.20;;;1.20;;
15679;SDS011;15488;48.114;11.532;2022-09-17T02:39:51;1.20;;;1.00;;
15679;SDS011;15488;48.114;11.532;2022-09-17T02:42:20;1.50;;;1.20;;
15679;SDS011;15488;48.114;11.532;2022-09-17T02:44:56;1.83;;;1.00;;
15679;SDS011;15488;48.114;11.532;2022-09-17T02:47:42;1.43;;;1.10;;
15679;SDS011;15488;48.114;11.532;2022-09-17T02:50:23;1.50;;;1.00;;
15679;SDS011;15488;48.114;11.532;2022-09-17T02:53:04;1.13;;;1.03;;
15679;SDS011;15488;48.114;11.532;2022-09-17T02:55:42;2.20;;;0.90;;
15679;SDS011;15488;48.114;11.532;2022-09-17T02:58:20;1.30;;;1.00;;
15679;SDS011;15488;48.114;11.532;2022-09-17T03:00:56;1.37;;;1.17;;
15679;SDS011;15488;48.114;11.532;2022-09-17T03:03:31;1.10;;;1.00;;
15679;SDS011;15488;48.114;11.532;2022-09-17T03:06:04;1.20;;;1.10;;
15679;SDS011;15488;48.114;11.532;2022-09-17T03:08:33;2.13;;;1.07;;
15679;SDS011;15488;48.114;11.532;2022-09-17T03:11:04;1.07;;;0.90;;
15679;SDS011;15488;48.114;11.532;2022-09-17T03:13:33;1.20;;;1.10;;
15679;SDS011;15488;48.114;11.532;2022-09-17T03:16:02;1.03;;;1.00;;
15679;SDS011;15488;48.114;11.532;2022-09-17T03:18:34;1.20;;;0.90;;
15679;SDS011;15488;48.114;11.532;2022-09-17T03:21:01;2.47;;;1.20;;
15679;SDS011;15488;48.114;11.532;2022-09-17T03:23:37;1.30;;;0.90;;
15679;SDS011;15488;48.114;11.532;2022-09-17T03:26:07;1.10;;;0.90;;
15679;SDS011;15488;48.114;11.532;2022-09-17T03:28:34;1.30;;;1.00;;
15679;SDS011;15488;48.114;11.532;2022-09-17T03:31:01;1.10;;;1.00;;
15679;SDS011;15488;48.114;11.532;2022-09-17T03:33:31;1.13;;;0.87;;
15679;SDS011;15488;48.114;11.532;2022-09-17T03:36:02;1.87;;;1.10;;
15679;SDS011;15488;48.114;11.532;2022-09-17T03:38:33;1.10;;;1.00;;
15679;SDS011;15488;48.114;11.532;2022-09-17T03:41:03;1.27;;;1.17;;
15679;SDS011;15488;48.114;11.532;2022-09-17T03:43:32;1.37;;;0.80;;
15679;SDS011;15488;48.114;11.532;2022-09-17T03:45:59;1.57;;;1.20;;
15679;SDS011;15488;48.114;11.532;2022-09-17T03:48:27;1.40;;;1.20;;
15679;SDS011;15488;48.114;11.532;2022-09-17T03:50:56;1.30;;;1.00;;
15679;SDS011;15488;48.114;11.532;2022-09-17T03:53:23;1.23;;;1.13;;
15679;SDS011;15488;48.114;11.532;2022-09-17T03:55:52;1.87;;;1.00;;
15679;SDS011;15488;48.114;11.532;2022-09-17T03:58:26;2.97;;;1.00;;
15679;SDS011;15488;48.114;11.532;2022-09-17T04:00:57;1.50;;;1.33;;
15679;SDS011;15488;48.114;11.532;2022-09-17T04:03:25;1.67;;;1.20;;
15679;SDS011;15488;48.114;11.532;2022-09-17T04:05:53;1.63;;;1.30;;
15679;SDS011;15488;48.114;11.532;2022-09-17T04:08:23;1.07;;;1.07;;
15679;SDS011;15488;48.114;11.532;2022-09-17T04:10:55;1.57;;;1.13;;
15679;SDS011;15488;48.114;11.532;2022-09-17T04:13:25;1.40;;;1.30;;
15679;SDS011;15488;48.114;11.532;2022-09-17T04:15:53;1.57;;;1.10;;
15679;SDS011;15488;48.114;11.532;2022-09-17T04:18:25;1.20;;;1.10;;
15679;SDS011;15488;48.114;11.532;2022-09-17T04:20:56;1.70;;;1.20;;
15679;SDS011;15488;48.114;11.532;2022-09-17T04:23:23;1.90;;;1.33;;
15679;SDS011;15488;48.114;11.532;2022-09-17T04:25:54;1.47;;;1.30;;
15679;SDS011;15488;48.114;11.532;2022-09-17T04:28:22;1.80;;;1.40;;
15679;SDS011;15488;48.114;11.532;2022-09-17T04:30:49;2.50;;;1.40;;
15679;SDS011;15488;48.114;11.532;2022-09-17T04:33:17;2.20;;;1.40;;
15679;SDS011;15488;48.114;11.532;2022-09-17T04:35:44;1.50;;;1.30;;
15679;SDS011;15488;48.114;11.532;2022-09-17T04:38:12;1.60;;;1.30;;
15679;SDS011;15488;48.114;11.532;2022-09-17T04:40:42;1.23;;;1.13;;
15679;SDS011;15488;48.114;11.532;2022-09-17T04:43:12;3.50;;;1.67;;
15679;SDS011;15488;48.114;11.532;2022-09-17T04:45:40;2.10;;;1.33;;
15679;SDS011;15488;48.114;11.532;2022-09-17T04:48:10;1.43;;;1.33;;
15679;SDS011;15488;48.114;11.532;2022-09-17T04:50:37;1.30;;;1.20;;
15679;SDS011;15488;48.114;11.532;2022-09-17T04:53:05;1.70;;;1.33;;
15679;SDS011;15488;48.114;11.532;2022-09-17T04:55:32;1.30;;;1.20;;
15679;SDS011;15488;48.114;11.532;2022-09-17T04:58:00;1.20;;;1.10;;
15679;SDS011;15488;48.114;11.532;2022-09-17T05:00:29;1.37;;;1.27;;
15679;SDS011;15488;48.114;11.532;2022-09-17T05:02:59;1.60;;;1.07;;
15679;SDS011;15488;48.114;11.532;2022-09-17T05:05:27;2.13;;;1.20;;
15679;SDS011;15488;48.114;11.532;2022-09-17T05:07:54;1.80;;;1.20;;
15679;SDS011;15488;48.114;11.532;2022-09-17T05:10:22;2.93;;;1.23;;
15679;SDS011;15488;48.114;11.532;2022-09-17T05:12:50;1.77;;;1.10;;
15679;SDS011;15488;48.114;11.532;2022-09-17T05:15:19;1.30;;;1.20;;
15679;SDS011;15488;48.114;11.532;2022-09-17T05:17:49;2.27;;;1.30;;
15679;SDS011;15488;48.114;11.532;2022-09-17T05:20:16;1.60;;;1.40;;
15679;SDS011;15488;48.114;11.532;2022-09-17T05:22:45;3.33;;;1.00;;
15679;SDS011;15488;48.114;11.532;2022-09-17T05:25:16;1.40;;;1.20;;
15679;SDS011;15488;48.114;11.532;2022-09-17T05:27:48;1.73;;;1.30;;
15679;SDS011;15488;48.114;11.532;2022-09-17T05:30:16;1.63;;;1.30;;
15679;SDS011;15488;48.114;11.532;2022-09-17T05:32:43;1.70;;;1.40;;
15679;SDS011;15488;48.114;11.532;2022-09-17T05:35:12;1.43;;;1.00;;
15679;SDS011;15488;48.114;11.532;2022-09-17T05:37:40;2.37;;;1.50;;
15679;SDS011;15488;48.114;11.532;2022-09-17T05:40:10;2.20;;;1.13;;
15679;SDS011;15488;48.114;11.532;2022-09-17T05:42:38;2.73;;;1.03;;
15679;SDS011;15488;48.114;11.532;2022-09-17T05:45:06;1.50;;;1.07;;
15679;SDS011;15488;48.114;11.532;2022-09-17T05:47:33;2.80;;;1.20;;
15679;SDS011;15488;48.114;11.532;2022-09-17T05:50:01;1.30;;;1.20;;
15679;SDS011;15488;48.114;11.532;2022-09-17T05:52:30;1.73;;;1.13;;
15679;SDS011;15488;48.114;11.532;2022-09-17T05:54:57;1.87;;;1.20;;
15679;SDS011;15488;48.114;11.532;2022-09-17T05:57:27;1.43;;;1.10;;
15679;SDS011;15488;48.114;11.532;2022-09-17T05:59:55;1.87;;;1.00;;
15679;SDS011;15488;48.114;11.532;2022-09-17T06:02:22;2.10;;;1.30;;
15679;SDS011;15488;48.114;11.532;2022-09-17T06:04:50;2.13;;;1.40;;
15679;SDS011;15488;48.114;11.532;2022-09-17T06:07:17;1.60;;;1.07;;
15679;SDS011;15488;48.114;11.532;2022-09-17T06:09:46;1.27;;;1.13;;
15679;SDS011;15488;48.114;11.532;2022-09-17T06:12:13;1.67;;;1.10;;
15679;SDS011;15488;48.114;11.532;2022-09-17T06:14:44;2.70;;;1.40;;
15679;SDS011;15488;48.114;11.532;2022-09-17T06:17:11;1.20;;;1.10;;
15679;SDS011;15488;48.114;11.532;2022-09-17T06:19:39;1.43;;;1.23;;
15679;SDS011;15488;48.114;11.532;2022-09-17T06:22:06;2.47;;;1.30;;
15679;SDS011;15488;48.114;11.532;2022-09-17T06:24:34;1.27;;;1.00;;
15679;SDS011;15488;48.114;11.532;2022-09-17T06:27:03;2.23;;;1.30;;
15679;SDS011;15488;48.114;11.532;2022-09-17T06:29:30;2.10;;;1.30;;
15679;SDS011;15488;48.114;11.532;2022-09-17T06:31:58;1.13;;;1.03;;
15679;SDS011;15488;48.114;11.532;2022-09-17T06:34:26;3.67;;;2.33;;
15679;SDS011;15488;48.114;11.532;2022-09-17T06:36:54;2.60;;;2.17;;
15679;SDS011;15488;48.114;11.532;2022-09-17T06:39:21;2.27;;;1.67;;
15679;SDS011;15488;48.114;11.532;2022-09-17T06:41:49;2.03;;;1.10;;
15679;SDS011;15488;48.114;11.532;2022-09-17T06:44:18;2.97;;;1.63;;
15679;SDS011;15488;48.114;11.532;2022-09-17T06:46:47;2.17;;;1.43;;
15679;SDS011;15488;48.114;11.532;2022-09-17T06:49:15;1.17;;;0.93;;
15679;SDS011;15488;48.114;11.532;2022-09-17T06:51:42;2.50;;;1.00;;
15679;SDS011;15488;48.114;11.532;2022-09-17T06:54:10;1.33;;;0.97;;
15679;SDS011;15488;48.114;11.532;2022-09-17T06:56:37;1.60;;;1.20;;
15679;SDS011;15488;48.114;11.532;2022-09-17T06:59:05;2.97;;;1.37;;
15679;SDS011;15488;48.114;11.532;2022-09-17T07:01:34;1.80;;;1.27;;
15679;SDS011;15488;48.114;11.532;2022-09-17T07:04:01;1.80;;;1.10;;
15679;SDS011;15488;48.114;11.532;2022-09-17T07:06:29;2.30;;;1.03;;
15679;SDS011;15488;48.114;11.532;2022-09-17T07:08:56;2.27;;;1.30;;
15679;SDS011;15488;48.114;11.532;2022-09-17T07:11:24;3.20;;;1.13;;
15679;SDS011;15488;48.114;11.532;2022-09-17T07:13:52;1.70;;;1.10;;
15679;SDS011;15488;48.114;11.532;2022-09-17T07:16:20;2.70;;;1.80;;
15679;SDS011;15488;48.114;11.532;2022-09-17T07:18:49;2.50;;;1.30;;
15679;SDS011;15488;48.114;11.532;2022-09-17T07:21:16;1.40;;;1.00;;
15679;SDS011;15488;48.114;11.532;2022-09-17T07:23:44;2.17;;;0.93;;
15679;SDS011;15488;48.114;11.532;2022-09-17T07:26:12;1.67;;;0.97;;
15679;SDS011;15488;48.114;11.532;2022-09-17T07:28:41;4.67;;;1.17;;
15679;SDS011;15488;48.114;11.532;2022-09-17T07:31:09;3.70;;;1.10;;
15679;SDS011;15488;48.114;11.532;2022-09-17T07:33:38;1.77;;;0.90;;
15679;SDS011;15488;48.114;11.532;2022-09-17T07:36:09;2.30;;;1.10;;
15679;SDS011;15488;48.114;11.532;2022-09-17T07:38:38;3.70;;;1.10;;
15679;SDS011;15488;48.114;11.532;2022-09-17T07:41:06;2.23;;;1.07;;
15679;SDS011;15488;48.114;11.532;2022-09-17T07:43:37;4.10;;;1.40;;
15679;SDS011;15488;48.114;11.532;2022-09-17T07:46:05;2.57;;;1.20;;
15679;SDS011;15488;48.114;11.532;2022-09-17T07:48:37;2.60;;;1.23;;
15679;SDS011;15488;48.114;11.532;2022-09-17T07:51:05;2.07;;;0.87;;
15679;SDS011;15488;48.114;11.532;2022-09-17T07:53:35;3.40;;;1.07;;
15679;SDS011;15488;48.114;11.532;2022-09-17T07:56:03;1.83;;;0.80;;
15679;SDS011;15488;48.114;11.532;2022-09-17T07:58:31;1.77;;;1.10;;
15679;SDS011;15488;48.114;11.532;2022-09-17T08:01:00;2.10;;;1.03;;
15679;SDS011;15488;48.114;11.532;2022-09-17T08:03:29;2.13;;;1.10;;
15679;SDS011;15488;48.114;11.532;2022-09-17T08:06:02;2.93;;;1.10;;
15679;SDS011;15488;48.114;11.532;2022-09-17T08:08:32;1.10;;;0.90;;
15679;SDS011;15488;48.114;11.532;2022-09-17T08:11:01;2.23;;;1.10;;
15679;SDS011;15488;48.114;11.532;2022-09-17T08:13:29;3.40;;;1.20;;
15679;SDS011;15488;48.114;11.532;2022-09-17T08:15:57;3.50;;;1.03;;
15679;SDS011;15488;48.114;11.532;2022-09-17T08:18:25;2.50;;;1.10;;
15679;SDS011;15488;48.114;11.532;2022-09-17T08:20:55;2.20;;;1.00;;
15679;SDS011;15488;48.114;11.532;2022-09-17T08:23:23;1.87;;;1.10;;
15679;SDS011;15488;48.114;11.532;2022-09-17T08:25:53;1.10;;;0.93;;
15679;SDS011;15488;48.114;11.532;2022-09-17T08:28:21;2.30;;;1.03;;
15679;SDS011;15488;48.114;11.532;2022-09-17T08:30:50;2.90;;;1.07;;
15679;SDS011;15488;48.114;11.532;2022-09-17T08:33:17;2.00;;;1.10;;
15679;SDS011;15488;48.114;11.532;2022-09-17T08:35:49;1.60;;;1.10;;
15679;SDS011;15488;48.114;11.532;2022-09-17T08:38:17;3.57;;;1.10;;
15679;SDS011;15488;48.114;11.532;2022-09-17T08:40:49;3.27;;;1.17;;
15679;SDS011;15488;48.114;11.532;2022-09-17T08:43:27;2.47;;;1.30;;
15679;SDS011;15488;48.114;11.532;2022-09-17T08:45:56;2.30;;;1.10;;
15679;SDS011;15488;48.114;11.532;2022-09-17T08:48:24;1.43;;;0.90;;
15679;SDS011;15488;48.114;11.532;2022-09-17T08:51:00;1.57;;;1.00;;
15679;SDS011;15488;48.114;11.532;2022-09-17T08:53:36;3.33;;;1.10;;
15679;SDS011;15488;48.114;11.532;2022-09-17T08:56:14;2.33;;;1.60;;
15679;SDS011;15488;48.114;11.532;2022-09-17T08:58:50;2.53;;;1.20;;
15679;SDS011;15488;48.114;11.532;2022-09-17T09:01:31;3.77;;;1.10;;
15679;SDS011;15488;48.114;11.532;2022-09-17T09:04:10;2.37;;;1.23;;
15679;SDS011;15488;48.114;11.532;2022-09-17T09:07:03;2.63;;;1.20;;
15679;SDS011;15488;48.114;11.532;2022-09-17T09:09:34;2.20;;;1.17;;
15679;SDS011;15488;48.114;11.532;2022-09-17T09:12:09;2.07;;;1.00;;
15679;SDS011;15488;48.114;11.532;2022-09-17T09:14:44;2.73;;;1.20;;
15679;SDS011;15488;48.114;11.532;2022-09-17T09:17:16;2.43;;;0.90;;
15679;SDS011;15488;48.114;11.532;2022-09-17T09:19:47;2.70;;;1.30;;
15679;SDS011;15488;48.114;11.532;2022-09-17T09:22:24;3.30;;;1.30;;
15679;SDS011;15488;48.114;11.532;2022-09-17T09:25:02;1.93;;;1.30;;
15679;SDS011;15488;48.114;11.532;2022-09-17T09:27:40;2.40;;;1.37;;
15679;SDS011;15488;48.114;11.532;2022-09-17T09:30:13;2.13;;;1.10;;
15679;SDS011;15488;48.114;11.532;2022-09-17T09:32:50;2.37;;;1.37;;
15679;SDS011;15488;48.114;11.532;2022-09-17T09:35:24;2.53;;;1.10;;
15679;SDS011;15488;48.114;11.532;2022-09-17T09:37:54;1.93;;;0.90;;
15679;SDS011;15488;48.114;11.532;2022-09-17T09:40:31;2.00;;;1.23;;
15679;SDS011;15488;48.114;11.532;2022-09-17T09:43:09;2.37;;;1.30;;
15679;SDS011;15488;48.114;11.532;2022-09-17T09:45:45;3.23;;;1.20;;
15679;SDS011;15488;48.114;11.532;2022-09-17T09:48:26;1.97;;;1.00;;
15679;SDS011;15488;48.114;11.532;2022-09-17T09:51:07;3.63;;;1.00;;
15679;SDS011;15488;48.114;11.532;2022-09-17T09:53:47;5.33;;;2.00;;
15679;SDS011;15488;48.114;11.532;2022-09-17T09:56:41;3.87;;;1.50;;
15679;SDS011;15488;48.114;11.532;2022-09-17T09:59:21;1.87;;;1.13;;
15679;SDS011;15488;48.114;11.532;2022-09-17T10:01:48;3.63;;;1.10;;
15679;SDS011;15488;48.114;11.532;2022-09-17T10:04:18;2.50;;;1.10;;
15679;SDS011;15488;48.114;11.532;2022-09-17T10:06:48;4.13;;;1.13;;
15679;SDS011;15488;48.114;11.532;2022-09-17T10:09:17;2.60;;;1.00;;
15679;SDS011;15488;48.114;11.532;2022-09-17T10:11:59;3.03;;;1.20;;
15679;SDS011;15488;48.114;11.532;2022-09-17T10:14:30;3.10;;;1.10;;
15679;SDS011;15488;48.114;11.532;2022-09-17T10:17:19;2.03;;;0.93;;
15679;SDS011;15488;48.114;11.532;2022-09-17T10:22:40;2.47;;;1.10;;
15679;SDS011;15488;48.114;11.532;2022-09-17T10:25:27;2.70;;;1.20;;
15679;SDS011;15488;48.114;11.532;2022-09-17T10:27:56;2.20;;;1.10;;
15679;SDS011;15488;48.114;11.532;2022-09-17T10:30:27;1.70;;;1.00;;
15679;SDS011;15488;48.114;11.532;2022-09-17T10:33:14;1.87;;;0.90;;
15679;SDS011;15488;48.114;11.532;2022-09-17T10:35:52;2.10;;;1.10;;
15679;SDS011;15488;48.114;11.532;2022-09-17T10:38:29;3.07;;;1.00;;
15679;SDS011;15488;48.114;11.532;2022-09-17T10:41:12;2.80;;;1.20;;
15679;SDS011;15488;48.114;11.532;2022-09-17T10:43:41;3.40;;;1.10;;
15679;SDS011;15488;48.114;11.532;2022-09-17T10:46:12;2.07;;;0.90;;
15679;SDS011;15488;48.114;11.532;2022-09-17T10:48:43;1.73;;;0.80;;
15679;SDS011;15488;48.114;11.532;2022-09-17T10:51:19;2.77;;;0.80;;
15679;SDS011;15488;48.114;11.532;2022-09-17T10:54:01;1.53;;;0.90;;
15679;SDS011;15488;48.114;11.532;2022-09-17T10:56:53;3.07;;;1.00;;
15679;SDS011;15488;48.114;11.532;2022-09-17T10:59:36;1.20;;;0.90;;
15679;SDS011;15488;48.114;11.532;2022-09-17T11:02:27;2.20;;;1.10;;
15679;SDS011;15488;48.114;11.532;2022-09-17T11:05:32;2.07;;;0.93;;
15679;SDS011;15488;48.114;11.532;2022-09-17T11:08:11;1.50;;;1.17;;
15679;SDS011;15488;48.114;11.532;2022-09-17T11:10:50;3.57;;;1.20;;
15679;SDS011;15488;48.114;11.532;2022-09-17T11:13:27;1.43;;;1.10;;
15679;SDS011;15488;48.114;11.532;2022-09-17T11:16:07;5.27;;;1.30;;
15679;SDS011;15488;48.114;11.532;2022-09-17T11:18:43;1.23;;;1.03;;
15679;SDS011;15488;48.114;11.532;2022-09-17T11:21:16;1.13;;;0.87;;
15679;SDS011;15488;48.114;11.532;2022-09-17T11:24:15;1.30;;;0.87;;
15679;SDS011;15488;48.114;11.532;2022-09-17T11:27:12;1.90;;;0.73;;
15679;SDS011;15488;48.114;11.532;2022-09-17T11:29:50;2.40;;;0.70;;
15679;SDS011;15488;48.114;11.532;2022-09-17T11:32:36;0.93;;;0.60;;
15679;SDS011;15488;48.114;11.532;2022-09-17T11:35:20;2.87;;;1.17;;
15679;SDS011;15488;48.114;11.532;2022-09-17T11:37:53;0.80;;;0.80;;
15679;SDS011;15488;48.114;11.532;2022-09-17T11:40:28;1.37;;;1.00;;
15679;SDS011;15488;48.114;11.532;2022-09-17T11:43:04;0.80;;;0.80;;
15679;SDS011;15488;48.114;11.532;2022-09-17T11:45:51;0.87;;;0.80;;
15679;SDS011;15488;48.114;11.532;2022-09-17T11:48:32;1.73;;;0.87;;
15679;SDS011;15488;48.114;11.532;2022-09-17T11:51:18;0.90;;;0.80;;
15679;SDS011;15488;48.114;11.532;2022-09-17T11:53:51;2.17;;;0.97;;
15679;SDS011;15488;48.114;11.532;2022-09-17T11:56:26;1.30;;;1.00;;
15679;SDS011;15488;48.114;11.532;2022-09-17T11:58:59;0.97;;;0.70;;
15679;SDS011;15488;48.114;11.532;2022-09-17T12:01:33;0.60;;;0.60;;
15679;SDS011;15488;48.114;11.532;2022-09-17T12:04:12;0.97;;;0.60;;
15679;SDS011;15488;48.114;11.532;2022-09-17T12:06:56;0.90;;;0.60;;
15679;SDS011;15488;48.114;11.532;2022-09-17T12:09:31;0.63;;;0.63;;
15679;SDS011;15488;48.114;11.532;2022-09-17T12:12:04;1.13;;;0.50;;
15679;SDS011;15488;48.114;11.532;2022-09-17T12:14:37;0.93;;;0.70;;
15679;SDS011;15488;48.114;11.532;2022-09-17T12:17:11;2.20;;;0.80;;
15679;SDS011;15488;48.114;11.532;2022-09-17T12:19:42;1.80;;;1.00;;
15679;SDS011;15488;48.114;11.532;2022-09-17T12:22:16;1.53;;;0.80;;
15679;SDS011;15488;48.114;11.532;2022-09-17T12:24:48;1.17;;;0.90;;
15679;SDS011;15488;48.114;11.532;2022-09-17T12:27:19;2.20;;;1.00;;
15679;SDS011;15488;48.114;11.532;2022-09-17T12:30:10;2.37;;;1.10;;
15679;SDS011;15488;48.114;11.532;2022-09-17T12:32:48;1.30;;;0.90;;
15679;SDS011;15488;48.114;11.532;2022-09-17T12:41:37;3.10;;;1.20;;
15679;SDS011;15488;48.114;11.532;2022-09-17T12:44:17;1.00;;;0.90;;
15679;SDS011;15488;48.114;11.532;2022-09-17T12:47:00;1.93;;;1.00;;
15679;SDS011;15488;48.114;11.532;2022-09-17T12:49:57;1.53;;;1.20;;
15679;SDS011;15488;48.114;11.532;2022-09-17T12:52:35;2.37;;;1.50;;
15679;SDS011;15488;48.114;11.532;2022-09-17T12:55:22;1.87;;;1.10;;
15679;SDS011;15488;48.114;11.532;2022-09-17T12:58:10;1.80;;;0.90;;
15679;SDS011;15488;48.114;11.532;2022-09-17T13:00:53;1.50;;;1.10;;
15679;SDS011;15488;48.114;11.532;2022-09-17T13:03:28;0.80;;;0.80;;
15679;SDS011;15488;48.114;11.532;2022-09-17T13:06:11;1.90;;;0.83;;
15679;SDS011;15488;48.114;11.532;2022-09-17T13:09:21;1.63;;;0.83;;
15679;SDS011;15488;48.114;11.532;2022-09-17T13:12:06;1.27;;;0.80;;
15679;SDS011;15488;48.114;11.532;2022-09-17T13:17:57;2.10;;;0.80;;
15679;SDS011;15488;48.114;11.532;2022-09-17T13:20:32;1.73;;;0.87;;
15679;SDS011;15488;48.114;11.532;2022-09-17T13:23:04;1.33;;;0.90;;
15679;SDS011;15488;48.114;11.532;2022-09-17T13:25:32;3.10;;;2.10;;
15679;SDS011;15488;48.114;11.532;2022-09-17T13:28:15;2.23;;;1.60;;
15679;SDS011;15488;48.114;11.532;2022-09-17T13:30:56;0.97;;;0.90;;
15679;SDS011;15488;48.114;11.532;2022-09-17T13:39:05;2.40;;;1.50;;
15679;SDS011;15488;48.114;11.532;2022-09-17T13:41:34;2.17;;;1.40;;
15679;SDS011;15488;48.114;11.532;2022-09-17T13:44:06;2.73;;;1.50;;
15679;SDS011;15488;48.114;11.532;2022-09-17T13:46:36;2.70;;;1.30;;
15679;SDS011;15488;48.114;11.532;2022-09-17T13:49:06;2.20;;;1.73;;
15679;SDS011;15488;48.114;11.532;2022-09-17T13:51:50;2.13;;;1.30;;
15679;SDS011;15488;48.114;11.532;2022-09-17T13:54:19;1.37;;;1.07;;
15679;SDS011;15488;48.114;11.532;2022-09-17T13:59:36;2.43;;;1.10;;
15679;SDS011;15488;48.114;11.532;2022-09-17T14:07:50;2.37;;;1.40;;
15679;SDS011;15488;48.114;11.532;2022-09-17T14:10:39;2.33;;;1.03;;
15679;SDS011;15488;48.114;11.532;2022-09-17T14:13:24;1.37;;;1.10;;
15679;SDS011;15488;48.114;11.532;2022-09-17T14:15:59;1.30;;;1.17;;
15679;SDS011;15488;48.114;11.532;2022-09-17T14:18:34;4.17;;;3.17;;
15679;SDS011;15488;48.114;11.532;2022-09-17T14:21:04;1.67;;;1.10;;
15679;SDS011;15488;48.114;11.532;2022-09-17T14:23:41;1.53;;;0.80;;
15679;SDS011;15488;48.114;11.532;2022-09-17T14:26:11;0.83;;;0.70;;
15679;SDS011;15488;48.114;11.532;2022-09-17T14:28:46;1.20;;;0.63;;
15679;SDS011;15488;48.114;11.532;2022-09-17T14:31:23;1.77;;;0.90;;
15679;SDS011;15488;48.114;11.532;2022-09-17T14:33:56;1.70;;;1.00;;
15679;SDS011;15488;48.114;11.532;2022-09-17T14:36:26;3.77;;;2.83;;
15679;SDS011;15488;48.114;11.532;2022-09-17T14:38:56;3.23;;;1.77;;
15679;SDS011;15488;48.114;11.532;2022-09-17T14:41:24;1.30;;;1.00;;
15679;SDS011;15488;48.114;11.532;2022-09-17T14:43:57;0.97;;;0.87;;
15679;SDS011;15488;48.114;11.532;2022-09-17T14:46:30;2.00;;;1.10;;
15679;SDS011;15488;48.114;11.532;2022-09-17T14:49:12;1.37;;;1.07;;
15679;SDS011;15488;48.114;11.532;2022-09-17T14:51:41;1.20;;;1.00;;
15679;SDS011;15488;48.114;11.532;2022-09-17T14:54:14;1.57;;;0.80;;
15679;SDS011;15488;48.114;11.532;2022-09-17T14:56:47;1.13;;;0.80;;
15679;SDS011;15488;48.114;11.532;2022-09-17T14:59:26;2.17;;;0.97;;
15679;SDS011;15488;48.114;11.532;2022-09-17T15:02:00;0.97;;;0.87;;
15679;SDS011;15488;48.114;11.532;2022-09-17T15:04:27;0.77;;;0.50;;
15679;SDS011;15488;48.114;11.532;2022-09-17T15:07:05;0.80;;;0.50;;
15679;SDS011;15488;48.114;11.532;2022-09-17T15:09:33;1.07;;;0.87;;
15679;SDS011;15488;48.114;11.532;2022-09-17T15:12:01;0.50;;;0.50;;
15679;SDS011;15488;48.114;11.532;2022-09-17T15:14:31;1.07;;;0.70;;
15679;SDS011;15488;48.114;11.532;2022-09-17T15:17:05;1.80;;;0.90;;
15679;SDS011;15488;48.114;11.532;2022-09-17T15:19:39;1.30;;;0.80;;
15679;SDS011;15488;48.114;11.532;2022-09-17T15:22:10;0.57;;;0.50;;
15679;SDS011;15488;48.114;11.532;2022-09-17T15:24:42;0.80;;;0.50;;
15679;SDS011;15488;48.114;11.532;2022-09-17T15:27:16;1.30;;;0.50;;
15679;SDS011;15488;48.114;11.532;2022-09-17T15:29:48;0.83;;;0.60;;
15679;SDS011;15488;48.114;11.532;2022-09-17T15:32:21;1.80;;;1.00;;
15679;SDS011;15488;48.114;11.532;2022-09-17T15:37:48;0.50;;;0.43;;
15679;SDS011;15488;48.114;11.532;2022-09-17T15:40:23;1.20;;;0.40;;
15679;SDS011;15488;48.114;11.532;2022-09-17T15:42:54;0.73;;;0.50;;
15679;SDS011;15488;48.114;11.532;2022-09-17T15:45:29;0.93;;;0.67;;